Aérodrome :
LOGIN :

S'inscrire | Disclaimer

   EN    FR    IT 

 










Légende :    VFR   VFR Marginal   IFR   IFR Intensif   IFR Très Intensif
Visi : 
Plafond : 
>= 8 km
>= 3000ft
5 à 8 km
1000 à 3000 ft
1500m à 5 km
500 à 1000 ft
800 à 1500m
200 à 500 ft
< 800m
< 200 ft
Symboles :   Orages  Brouillard  Fortes neiges  Fortes précipitations  Vent > 20 kt
SIGMETs :   Divers  Orages  Givrage  Turbulence  Onde Orograph.  Cendres Volcan.







- Altitude de l'aérodrome : 286 ft
- Code IATA : TRF


ENTO - Sandefjord , Torp

DERNIER METAR :
  • 211420Z 02005KT 5000 OVC004 M03/M03 Q1026

METARs EXPIRÉS :
  • 211350Z 03004KT 7000 OVC004 M03/M03 Q1026
  • 211320Z 02006KT 7000 OVC006 M03/M03 Q1026
  • 211250Z 02005KT 9999 BKN007 M03/M03 Q1026

TAF TAF ENTO
Valide du 21 à 12h jusqu'au 22 à 12h UTC


2112/2212 VRB05KT 9999 SCT010 BKN020
TEMPO 2112/2115 BKN008
PROB40 2200/2212 0300 FZFG VV001
Pas de NOTAMs connus pour ce terrain.
2 SIGMETs publiés pour la FIR Norway (ENOR) :
 
Turbulence forte
ENOS SIGMET A01 VALID 211400/211800 ENMI
ENOR NORWAY FIR OCNL SEV TURB FCST WI N5745 E00900 - N6200 E00900 - N6200 E01215 - N5846 E01100 - N5745 E00900 FL200/360 MOV E 5KT NC=
Turbulence forte
ENBD SIGMET C01 VALID 211400/211800 ENVV
ENOR NORWAY FIR OCNL SEV TURB FCST WI N6200 E00900 - N6500 E00840 - N6500 E01240 - N6200 E01215 - N6200 E00900 FL200/360 MOV E 5KT NC=



MET'MAP, la Météo Aéronautique d'un coup d'oeil ! - Copyright ORBIFLY Décembre 2007 - Disclaimer

ORBIFLY MET'MAP TEAM :

Programmation & Développement : Alexandra Zaïnal
Conception & Développement : Baudouin d'Aumeries
Co-Programmation & Développement : Marc-Olivier Méhu
Soutien technique & logistique : Manuel Goepfert

Contact : metmap@orbifly.com




SOURCES & CREDITS :

   NOAA